Safi — 5VBW7 — position and weather

sailwx.info

Track history (hours):
 
Tides and Currents Weather Stations Pressure Air Temp Water Temp Dewpoint Dewpoint Depression Visibility Wind Speed Wind Dir Waves Ship Positions

Safi

Last reported at 2017-Sep-21 01:48 UTC. Time now 2017-Nov-19 10:38 UTC.
Position N 32°02' E 032°16'.
Warning: this ship's position is 59 days out of date.

Length 93 m; draft 4.4 m.

Type: Cargo ship. MMSI: 671327000.

Date/timePositionNaut miles runAvg speedWind from/ knotsBaromVisibWave heightAir tempDewpointWater temp
2017-Sep-21 01:48N 32°02' E 032°16'4810.0
2017-Sep-20 21:01N 32°36' E 032°55'210.2
2017-Sep-20 20:47N 32°38' E 032°57'310.2
2017-Sep-20 20:30N 32°40' E 032°59'2910.1
2017-Sep-20 17:42N 33°01' E 033°23'510.2
2017-Sep-20 17:14N 33°04' E 033°26'1510.3
2017-Sep-20 15:45N 33°15' E 033°39'510.4
2017-Sep-20 15:15N 33°19' E 033°43'310.4
2017-Sep-20 15:00N 33°21' E 033°46'  
Track history (hours):
 
Tides and Currents Weather Stations Pressure Air Temp Water Temp Dewpoint Dewpoint Depression Visibility Wind Speed Wind Dir Waves Ship Positions

Safi

Last reported at 2017-Sep-21 01:48 UTC. Time now 2017-Nov-19 10:38 UTC.
Position N 32°02' E 032°16'.
Warning: this ship's position is 59 days out of date.

Length 93 m; draft 4.4 m.

Type: Cargo ship. MMSI: 671327000.

Date/timePositionNaut miles runAvg speedWind from/ knotsBaromVisibWave heightAir tempDewpointWater temp
2017-Sep-21 01:48N 32°02' E 032°16'4810.0
2017-Sep-20 21:01N 32°36' E 032°55'210.2
2017-Sep-20 20:47N 32°38' E 032°57'310.2
2017-Sep-20 20:30N 32°40' E 032°59'2910.1
2017-Sep-20 17:42N 33°01' E 033°23'510.2
2017-Sep-20 17:14N 33°04' E 033°26'1510.3
2017-Sep-20 15:45N 33°15' E 033°39'510.4
2017-Sep-20 15:15N 33°19' E 033°43'310.4
2017-Sep-20 15:00N 33°21' E 033°46'  

Dump ship's entire track history